createdAt,value
2019-04-16T00:01:30.698Z,63.84
2019-04-16T00:04:01.746Z,63.98
2019-04-16T00:06:45.696Z,63.94
2019-04-16T00:09:20.975Z,64.15
2019-04-16T00:11:52.047Z,64.09
2019-04-16T00:14:28.939Z,64.45
2019-04-16T00:16:58.375Z,64.51
2019-04-16T00:19:27.790Z,64.43
2019-04-16T00:22:02.018Z,64.42
2019-04-16T00:24:35.825Z,64.50
2019-04-16T00:27:06.892Z,64.65
2019-04-16T00:29:39.422Z,64.56
2019-04-16T00:32:09.773Z,64.66
2019-04-16T00:34:39.637Z,64.59
2019-04-16T00:37:11.934Z,65.02
2019-04-16T00:39:41.413Z,65.33
2019-04-16T00:42:15.459Z,65.53
2019-04-16T00:44:44.943Z,65.59
2019-04-16T00:47:14.385Z,66.30
2019-04-16T00:49:44.181Z,66.16
2019-04-16T00:52:14.256Z,66.24
2019-04-16T00:54:43.671Z,66.14
2019-04-16T00:57:17.659Z,66.31
2019-04-16T00:59:45.568Z,66.32
2019-04-16T01:02:15.075Z,65.97
2019-04-16T01:04:45.895Z,65.67
2019-04-16T01:07:15.483Z,65.87
2019-04-16T01:09:44.874Z,66.64
2019-04-16T01:12:15.819Z,66.32
2019-04-16T01:14:45.294Z,66.49
2019-04-16T01:17:17.262Z,66.66
2019-04-16T01:19:47.431Z,66.77
2019-04-16T01:22:16.966Z,66.60
2019-04-16T01:24:46.434Z,66.77
2019-04-16T01:27:16.349Z,66.74
2019-04-16T01:29:45.760Z,66.65
2019-04-16T01:32:20.355Z,66.85
2019-04-16T01:35:05.596Z,66.70
2019-04-16T01:37:42.908Z,67.02
2019-04-16T01:40:18.401Z,67.42
2019-04-16T01:42:45.347Z,67.42
2019-04-16T01:45:14.772Z,67.59
2019-04-16T01:47:44.184Z,67.69
2019-04-16T01:50:14.120Z,67.71
2019-04-16T01:52:49.455Z,67.96
2019-04-16T01:55:16.466Z,68.46
2019-04-16T01:57:45.874Z,68.45
2019-04-16T02:00:16.913Z,68.54
2019-04-16T02:02:50.845Z,68.24
2019-04-16T02:05:23.966Z,68.04
2019-04-16T02:07:56.375Z,68.12
2019-04-16T02:10:26.233Z,68.29
2019-04-16T02:12:56.050Z,68.59
2019-04-16T02:15:25.548Z,68.93
2019-04-16T02:17:58.764Z,69.51
2019-04-16T02:20:27.220Z,69.06
2019-04-16T02:22:56.642Z,69.22
2019-04-16T02:25:27.194Z,69.15
2019-04-16T02:27:57.062Z,68.82
2019-04-16T02:30:27.278Z,68.76
2019-04-16T02:33:02.776Z,68.46
2019-04-16T02:35:46.972Z,68.80
2019-04-16T02:38:17.963Z,68.90
2019-04-16T02:40:52.954Z,69.08
2019-04-16T02:43:20.577Z,69.17
2019-04-16T02:45:56.795Z,69.06
2019-04-16T02:48:21.245Z,69.48
2019-04-16T02:50:52.902Z,69.93
2019-04-16T02:53:39.019Z,70.18
2019-04-16T02:56:19.356Z,70.21
2019-04-16T02:58:50.549Z,70.60
2019-04-16T03:01:21.751Z,70.59
2019-04-16T03:04:05.073Z,70.91
2019-04-16T03:06:36.085Z,70.99
2019-04-16T03:09:09.176Z,71.47
2019-04-16T03:11:39.289Z,71.24
2019-04-16T03:14:09.027Z,71.21
2019-04-16T03:16:56.415Z,71.58
2019-04-16T03:19:30.159Z,71.24
2019-04-16T03:22:03.430Z,71.38
2019-04-16T03:24:33.360Z,71.81
2019-04-16T03:27:05.926Z,72.21
2019-04-16T03:29:35.508Z,72.25
2019-04-16T03:32:05.020Z,72.38
2019-04-16T03:34:34.646Z,73.47
2019-04-16T03:37:05.087Z,73.62
2019-04-16T03:39:35.070Z,73.98
2019-04-16T03:42:05.983Z,73.99
2019-04-16T03:44:37.248Z,73.94
2019-04-16T03:47:06.600Z,73.99
2019-04-16T03:49:36.033Z,74.00
2019-04-16T03:52:08.766Z,74.39
2019-04-16T03:54:36.579Z,74.11
2019-04-16T03:57:07.644Z,74.21
2019-04-16T03:59:39.959Z,74.24
2019-04-16T04:02:09.554Z,73.95
2019-04-16T04:04:40.124Z,74.23
2019-04-16T04:07:11.995Z,75.17
2019-04-16T04:09:40.590Z,74.77
2019-04-16T04:12:13.366Z,74.69
2019-04-16T04:14:43.022Z,74.71
2019-04-16T04:17:13.409Z,74.85
2019-04-16T04:19:46.147Z,74.89
2019-04-16T04:22:17.218Z,74.94
2019-04-16T04:24:47.165Z,75.15
2019-04-16T04:27:19.023Z,75.82
2019-04-16T04:29:47.755Z,76.02
2019-04-16T04:32:18.774Z,76.19
2019-04-16T04:34:49.436Z,76.07
2019-04-16T04:37:20.189Z,76.05
2019-04-16T04:39:49.657Z,76.06
2019-04-16T04:42:19.665Z,76.46
2019-04-16T04:44:50.949Z,76.73
2019-04-16T04:47:20.675Z,76.59
2019-04-16T04:49:52.471Z,76.60
2019-04-16T04:52:21.879Z,76.60
2019-04-16T04:54:53.971Z,76.41
2019-04-16T04:57:22.499Z,76.18
2019-04-16T04:59:51.943Z,75.99
2019-04-16T05:02:21.363Z,76.21
2019-04-16T05:07:48.705Z,76.00
2019-04-16T05:10:18.147Z,75.81
2019-04-16T05:12:47.690Z,76.11
2019-04-16T05:15:19.099Z,75.94
2019-04-16T05:17:48.517Z,75.76
2019-04-16T05:20:18.004Z,76.06
2019-04-16T05:22:47.418Z,75.68
2019-04-16T05:25:19.667Z,75.30
2019-04-16T05:27:49.095Z,75.76
2019-04-16T05:30:21.748Z,75.40
2019-04-16T05:32:51.679Z,74.97
2019-04-16T05:35:21.645Z,74.79
2019-04-16T05:37:52.078Z,74.32
2019-04-16T05:40:21.706Z,74.59
2019-04-16T05:42:52.811Z,74.23
2019-04-16T05:45:22.342Z,74.06
2019-04-16T05:47:51.785Z,74.75
2019-04-16T05:50:21.215Z,74.83
2019-04-16T05:52:50.748Z,74.62
2019-04-16T05:55:38.023Z,73.55
2019-04-16T05:58:07.460Z,73.81
2019-04-16T06:00:47.152Z,73.82
2019-04-16T06:03:20.591Z,73.98
2019-04-16T06:05:47.700Z,73.85
2019-04-16T06:08:17.156Z,73.85
2019-04-16T06:10:49.695Z,72.95
2019-04-16T06:13:31.437Z,72.51
2019-04-16T06:16:02.599Z,72.63
2019-04-16T06:18:37.955Z,72.74
2019-04-16T06:21:14.622Z,71.80
2019-04-16T06:23:48.223Z,71.83
2019-04-16T06:26:21.014Z,71.55
2019-04-16T06:28:55.952Z,71.02
2019-04-16T06:31:38.768Z,71.72
2019-04-16T06:34:08.860Z,70.77
2019-04-16T06:36:39.976Z,71.05
2019-04-16T06:39:13.916Z,69.18
2019-04-16T06:42:01.408Z,69.31
2019-04-16T06:44:34.961Z,69.51
2019-04-16T06:47:10.476Z,69.29
2019-04-16T06:49:41.899Z,67.80
2019-04-16T06:52:16.788Z,66.93
2019-04-16T06:55:04.365Z,66.80
2019-04-16T06:57:44.460Z,66.28
2019-04-16T07:00:21.723Z,65.54
2019-04-16T07:03:08.735Z,66.84
2019-04-16T07:05:54.966Z,66.62
2019-04-16T07:08:41.933Z,66.08
2019-04-16T07:11:16.158Z,65.85
2019-04-16T07:13:45.595Z,65.94
2019-04-16T07:16:15.031Z,65.69
2019-04-16T07:18:44.514Z,65.59
2019-04-16T07:21:14.546Z,64.48
2019-04-16T07:23:46.515Z,65.19
2019-04-16T07:26:16.597Z,64.43
2019-04-16T07:29:04.356Z,64.64
2019-04-16T07:31:38.037Z,62.66
2019-04-16T07:34:21.157Z,62.78
2019-04-16T07:36:56.623Z,61.52
2019-04-16T07:39:37.843Z,62.51
2019-04-16T07:42:11.730Z,61.57
2019-04-16T07:44:57.071Z,62.25
2019-04-16T07:47:34.126Z,61.46
2019-04-16T07:50:15.532Z,60.33
2019-04-16T07:53:02.557Z,60.17
2019-04-16T07:55:42.569Z,60.98
2019-04-16T07:58:12.009Z,58.84
2019-04-16T08:00:41.679Z,58.05
2019-04-16T08:03:14.194Z,56.79
2019-04-16T08:05:43.686Z,56.83
2019-04-16T08:08:13.112Z,55.54
2019-04-16T08:10:42.615Z,54.86
2019-04-16T08:13:16.844Z,54.14
2019-04-16T08:15:46.459Z,51.99
2019-04-16T08:18:16.053Z,52.26
2019-04-16T08:21:00.025Z,53.12
2019-04-16T08:23:27.110Z,51.39
2019-04-16T08:26:03.513Z,51.71
2019-04-16T08:28:29.318Z,51.09
2019-04-16T08:30:58.915Z,49.69
2019-04-16T08:33:29.262Z,49.82
2019-04-16T08:35:58.808Z,51.79
2019-04-16T08:38:28.214Z,51.67
2019-04-16T08:40:57.660Z,52.38
2019-04-16T08:43:29.649Z,53.01
2019-04-16T08:45:58.430Z,50.31
2019-04-16T08:48:27.922Z,48.71
2019-04-16T08:50:58.406Z,52.07
2019-04-16T08:53:28.652Z,51.71
2019-04-16T08:55:58.269Z,52.16
2019-04-16T08:58:27.708Z,48.70
2019-04-16T09:00:57.291Z,49.23
2019-04-16T09:03:29.916Z,48.88
2019-04-16T09:05:57.923Z,44.96
2019-04-16T09:08:46.937Z,44.37
2019-04-16T09:11:23.472Z,45.33
2019-04-16T09:13:59.162Z,45.26
2019-04-16T09:16:28.851Z,46.30
2019-04-16T09:19:05.917Z,46.62
2019-04-16T09:21:35.343Z,45.46
2019-04-16T09:24:20.103Z,45.22
2019-04-16T09:26:52.689Z,41.69
2019-04-16T09:29:40.817Z,44.31
2019-04-16T09:32:11.909Z,43.90
2019-04-16T09:34:45.960Z,46.03
2019-04-16T09:37:28.622Z,44.37
2019-04-16T09:39:58.864Z,43.40
2019-04-16T09:42:28.310Z,42.03
2019-04-16T09:45:01.770Z,42.03
2019-04-16T09:47:32.529Z,40.34
2019-04-16T09:50:02.794Z,38.31
2019-04-16T09:52:32.747Z,39.63
2019-04-16T09:55:02.239Z,37.81
2019-04-16T09:57:32.418Z,35.12
2019-04-16T10:00:03.607Z,34.93
2019-04-16T10:02:34.201Z,35.28
2019-04-16T10:05:05.460Z,34.80
2019-04-16T10:07:40.024Z,33.94
2019-04-16T10:10:06.761Z,34.09
2019-04-16T10:12:36.265Z,33.79
2019-04-16T10:15:07.996Z,34.18
2019-04-16T10:17:37.499Z,34.12
2019-04-16T10:20:07.891Z,34.35
2019-04-16T10:22:37.312Z,35.02
2019-04-16T10:25:14.186Z,35.20
2019-04-16T10:27:45.339Z,34.80
2019-04-16T10:30:25.813Z,35.41
2019-04-16T10:32:55.380Z,38.05
2019-04-16T10:35:25.695Z,36.47
2019-04-16T10:37:55.210Z,35.82
2019-04-16T10:40:26.539Z,35.95
2019-04-16T10:43:13.079Z,36.20
2019-04-16T10:45:58.776Z,36.36
2019-04-16T10:48:47.822Z,37.33
2019-04-16T10:51:28.480Z,35.25
2019-04-16T10:53:59.647Z,36.10
2019-04-16T10:56:49.030Z,35.83
2019-04-16T10:59:38.173Z,35.02
2019-04-16T11:02:28.662Z,35.10
2019-04-16T11:04:58.291Z,34.77
2019-04-16T11:07:29.410Z,35.02
2019-04-16T11:09:58.941Z,34.88
2019-04-16T11:12:28.451Z,34.25
2019-04-16T11:14:59.121Z,34.53
2019-04-16T11:17:29.263Z,33.90
2019-04-16T11:20:00.121Z,34.16
2019-04-16T11:22:29.947Z,32.76
2019-04-16T11:24:59.524Z,34.15
2019-04-16T11:27:29.018Z,35.34
2019-04-16T11:29:58.480Z,35.37
2019-04-16T11:32:29.580Z,33.95
2019-04-16T11:34:59.059Z,34.41
2019-04-16T11:37:28.506Z,33.07
2019-04-16T11:39:57.995Z,32.68
2019-04-16T11:42:27.479Z,32.89
2019-04-16T11:44:56.949Z,32.07
2019-04-16T11:47:28.122Z,32.14
2019-04-16T11:49:57.559Z,32.07
2019-04-16T11:52:27.123Z,32.05
2019-04-16T11:54:56.579Z,36.08
2019-04-16T11:57:26.042Z,32.45
2019-04-16T12:00:06.393Z,33.40
2019-04-16T12:02:31.926Z,32.63
2019-04-16T12:05:11.755Z,33.77
2019-04-16T12:07:42.897Z,32.29
2019-04-16T12:10:30.774Z,32.24
2019-04-16T12:13:04.885Z,32.38
2019-04-16T12:15:41.731Z,33.36
2019-04-16T12:18:15.882Z,33.78
2019-04-16T12:20:49.694Z,31.67
2019-04-16T12:23:33.092Z,32.98
2019-04-16T12:26:10.542Z,32.25
2019-04-16T12:28:44.759Z,32.68
2019-04-16T12:31:17.300Z,32.58
2019-04-16T12:33:54.171Z,32.81
2019-04-16T12:36:34.599Z,32.53
2019-04-16T12:39:06.889Z,31.54
2019-04-16T12:41:38.846Z,31.79
2019-04-16T12:44:26.080Z,31.21
2019-04-16T12:47:09.432Z,31.97
2019-04-16T12:49:56.546Z,30.94
2019-04-16T12:52:39.678Z,31.61
2019-04-16T12:55:23.540Z,31.50
2019-04-16T12:57:58.775Z,33.25
2019-04-16T13:00:34.522Z,33.57
2019-04-16T13:03:16.378Z,31.46
2019-04-16T13:05:44.797Z,29.93
2019-04-16T13:08:18.984Z,31.80
2019-04-16T13:11:02.543Z,30.44
2019-04-16T13:13:52.024Z,31.84
2019-04-16T13:16:26.628Z,30.80
2019-04-16T13:19:06.741Z,29.75
2019-04-16T13:21:37.887Z,29.68
2019-04-16T13:24:20.696Z,28.60
2019-04-16T13:26:54.575Z,28.72
2019-04-16T13:29:29.373Z,29.45
2019-04-16T13:31:56.915Z,28.28
2019-04-16T13:34:27.037Z,29.18
2019-04-16T13:36:59.344Z,29.76
2019-04-16T13:39:32.051Z,29.17
2019-04-16T13:42:01.624Z,29.05
2019-04-16T13:44:40.665Z,29.72
2019-04-16T13:47:09.767Z,30.10
2019-04-16T13:49:40.873Z,29.15
2019-04-16T13:52:11.944Z,29.30
2019-04-16T13:54:59.400Z,29.64
2019-04-16T13:57:30.451Z,29.58
2019-04-16T14:00:04.313Z,29.33
2019-04-16T14:02:44.077Z,29.10
2019-04-16T14:05:13.746Z,29.58
2019-04-16T14:07:43.259Z,28.19
2019-04-16T14:10:12.959Z,28.94
2019-04-16T14:12:42.799Z,29.72
2019-04-16T14:15:13.239Z,29.81
2019-04-16T14:17:52.460Z,28.51
2019-04-16T14:20:14.612Z,28.79
2019-04-16T14:22:44.177Z,28.83
2019-04-16T14:25:13.907Z,28.44
2019-04-16T14:27:44.866Z,28.74
2019-04-16T14:30:16.306Z,27.75
2019-04-16T14:32:45.800Z,28.40
2019-04-16T14:35:32.434Z,28.89
2019-04-16T14:37:49.788Z,28.28
2019-04-16T14:40:21.545Z,28.06
2019-04-16T14:42:56.276Z,27.87
2019-04-16T14:45:27.240Z,30.08
2019-04-16T14:47:56.733Z,28.76
2019-04-16T14:50:26.424Z,28.97
2019-04-16T14:52:55.960Z,28.63
2019-04-16T14:55:41.981Z,27.86
2019-04-16T14:58:27.796Z,28.11
2019-04-16T15:00:59.179Z,28.77
2019-04-16T15:03:49.944Z,28.06
2019-04-16T15:06:26.990Z,27.67
2019-04-16T15:09:14.963Z,27.75
2019-04-16T15:11:46.075Z,28.87
2019-04-16T15:14:26.781Z,28.31
2019-04-16T15:17:00.641Z,27.87
2019-04-16T15:19:31.709Z,28.07
2019-04-16T15:22:19.189Z,27.58
2019-04-16T15:24:50.509Z,27.55
2019-04-16T15:27:36.830Z,27.88
2019-04-16T15:30:11.331Z,27.46
2019-04-16T15:32:42.489Z,28.10
2019-04-16T15:35:31.850Z,28.04
2019-04-16T15:38:08.592Z,27.94
2019-04-16T15:40:42.189Z,28.97
2019-04-16T15:43:19.176Z,28.38
2019-04-16T15:45:55.187Z,28.26
2019-04-16T15:48:26.390Z,28.84
2019-04-16T15:50:57.487Z,28.50
2019-04-16T15:53:34.312Z,29.82
2019-04-16T15:56:05.584Z,29.36
2019-04-16T15:58:54.926Z,29.10
2019-04-16T16:01:28.720Z,30.27
2019-04-16T16:04:02.744Z,28.73
2019-04-16T16:06:33.879Z,29.46
2019-04-16T16:09:11.693Z,29.19
2019-04-16T16:11:44.527Z,29.47
2019-04-16T16:14:15.806Z,30.08
2019-04-16T16:16:47.802Z,29.08
2019-04-16T16:19:16.580Z,29.48
2019-04-16T16:21:46.039Z,30.11
2019-04-16T16:24:15.469Z,29.37
2019-04-16T16:26:45.040Z,29.81
2019-04-16T16:29:14.492Z,29.50
2019-04-16T16:31:43.946Z,29.94
2019-04-16T16:34:13.364Z,29.95
2019-04-16T16:36:42.885Z,29.86
2019-04-16T16:39:12.336Z,29.42
2019-04-16T16:41:46.335Z,30.46
2019-04-16T16:44:14.685Z,30.18
2019-04-16T16:46:56.753Z,29.99
2019-04-16T16:49:20.087Z,30.93
2019-04-16T16:52:06.424Z,30.86
2019-04-16T16:54:35.917Z,30.71
2019-04-16T16:57:13.071Z,31.40
2019-04-16T16:59:44.623Z,31.66
2019-04-16T17:02:21.786Z,32.98
2019-04-16T17:04:52.853Z,32.12
2019-04-16T17:07:22.357Z,31.91
2019-04-16T17:09:53.114Z,32.94
2019-04-16T17:12:22.695Z,32.54
2019-04-16T17:14:54.300Z,33.41
2019-04-16T17:17:23.821Z,32.54
2019-04-16T17:19:54.916Z,32.18
2019-04-16T17:22:24.919Z,32.94
2019-04-16T17:24:56.432Z,32.49
2019-04-16T17:27:26.096Z,32.81
2019-04-16T17:29:55.934Z,32.32
2019-04-16T17:32:25.521Z,32.65
2019-04-16T17:34:54.966Z,33.63
2019-04-16T17:37:27.979Z,33.80
2019-04-16T17:39:57.006Z,33.11
2019-04-16T17:42:37.590Z,34.54
2019-04-16T17:45:14.295Z,33.88
2019-04-16T17:47:55.666Z,34.36
2019-04-16T17:50:36.702Z,34.25
2019-04-16T17:53:16.155Z,33.76
2019-04-16T17:55:50.349Z,34.42
2019-04-16T17:58:27.225Z,33.92
2019-04-16T18:01:00.237Z,34.57
2019-04-16T18:03:49.603Z,33.29
2019-04-16T18:06:38.038Z,33.74
2019-04-16T18:09:12.718Z,34.12
2019-04-16T18:11:44.744Z,33.80
2019-04-16T18:14:28.531Z,34.32
2019-04-16T18:17:05.688Z,34.02
2019-04-16T18:19:36.719Z,34.12
2019-04-16T18:22:09.539Z,34.18
2019-04-16T18:24:40.682Z,34.67
2019-04-16T18:27:29.506Z,34.83
2019-04-16T18:30:07.116Z,35.03
2019-04-16T18:32:39.381Z,34.55
2019-04-16T18:35:25.759Z,34.94
2019-04-16T18:38:02.665Z,35.27
2019-04-16T18:40:33.951Z,35.34
2019-04-16T18:43:10.577Z,35.64
2019-04-16T18:46:00.038Z,36.01
2019-04-16T18:48:31.105Z,36.21
2019-04-16T18:51:01.954Z,35.89
2019-04-16T18:53:31.541Z,36.30
2019-04-16T18:56:04.167Z,36.78
2019-04-16T18:58:33.755Z,36.69
2019-04-16T19:01:13.834Z,36.60
2019-04-16T19:03:43.365Z,37.21
2019-04-16T19:06:14.481Z,37.12
2019-04-16T19:08:43.978Z,37.54
2019-04-16T19:11:13.629Z,37.46
2019-04-16T19:13:43.066Z,37.83
2019-04-16T19:16:12.583Z,37.68
2019-04-16T19:18:42.189Z,37.86
2019-04-16T19:21:14.784Z,37.62
2019-04-16T19:23:45.850Z,37.86
2019-04-16T19:26:15.359Z,38.32
2019-04-16T19:28:45.601Z,38.26
2019-04-16T19:31:15.210Z,38.74
2019-04-16T19:33:44.732Z,38.72
2019-04-16T19:36:14.300Z,38.53
2019-04-16T19:38:43.760Z,38.41
2019-04-16T19:41:13.214Z,38.85
2019-04-16T19:43:42.650Z,38.57
2019-04-16T19:46:15.340Z,38.21
2019-04-16T19:48:44.859Z,38.47
2019-04-16T19:51:19.643Z,38.43
2019-04-16T19:53:50.066Z,37.89
2019-04-16T19:56:21.119Z,37.89
2019-04-16T19:58:51.644Z,38.61
2019-04-16T20:01:21.309Z,38.49
2019-04-16T20:03:51.957Z,38.36
2019-04-16T20:06:25.250Z,38.45
2019-04-16T20:08:52.601Z,38.45
2019-04-16T20:11:23.548Z,39.24
2019-04-16T20:13:53.605Z,39.24
2019-04-16T20:16:24.198Z,38.67
2019-04-16T20:18:53.641Z,39.25
2019-04-16T20:21:23.336Z,38.85
2019-04-16T20:23:53.172Z,39.50
2019-04-16T20:26:22.727Z,38.92
2019-04-16T20:28:52.257Z,39.92
2019-04-16T20:31:21.707Z,38.83
2019-04-16T20:33:51.239Z,38.39
2019-04-16T20:36:22.743Z,39.36
2019-04-16T20:38:53.679Z,39.51
2019-04-16T20:41:23.130Z,39.55
2019-04-16T20:43:52.739Z,39.04
2019-04-16T20:46:22.189Z,38.65
2019-04-16T20:49:06.514Z,39.50
2019-04-16T20:51:26.342Z,39.38
2019-04-16T20:53:54.055Z,39.91
2019-04-16T20:56:23.521Z,39.26
2019-04-16T20:58:52.957Z,39.38
2019-04-16T21:01:34.002Z,39.31
2019-04-16T21:04:05.065Z,39.25
2019-04-16T21:06:27.629Z,39.24
2019-04-16T21:08:58.238Z,39.26
2019-04-16T21:11:27.991Z,39.39
2019-04-16T21:13:57.446Z,39.74
2019-04-16T21:16:26.880Z,40.05
2019-04-16T21:18:56.382Z,40.48
2019-04-16T21:21:26.007Z,40.24
2019-04-16T21:23:55.474Z,40.23
2019-04-16T21:26:24.929Z,39.86
2019-04-16T21:29:03.026Z,40.24
2019-04-16T21:31:42.294Z,40.54
2019-04-16T21:34:13.467Z,40.75
2019-04-16T21:36:44.573Z,40.68
2019-04-16T21:42:06.853Z,40.65
2019-04-16T21:44:37.920Z,40.86
2019-04-16T21:47:07.648Z,40.83
2019-04-16T21:49:38.965Z,41.21
2019-04-16T21:52:08.278Z,41.20
2019-04-16T21:54:39.123Z,41.05
2019-04-16T21:57:12.924Z,40.97
2019-04-16T21:59:39.918Z,41.29
2019-04-16T22:02:13.787Z,41.50
2019-04-16T22:04:42.744Z,41.28
2019-04-16T22:07:13.708Z,41.42
2019-04-16T22:09:43.209Z,41.14
2019-04-16T22:12:15.567Z,41.55
2019-04-16T22:14:43.892Z,41.24
2019-04-16T22:17:13.428Z,41.91
2019-04-16T22:19:54.003Z,42.30
2019-04-16T22:22:14.999Z,42.44
2019-04-16T22:24:45.189Z,42.80
2019-04-16T22:27:14.619Z,42.96
2019-04-16T22:29:47.271Z,43.07
2019-04-16T22:32:15.181Z,42.75
2019-04-16T22:34:44.690Z,42.70
2019-04-16T22:37:14.113Z,43.19
2019-04-16T22:40:00.543Z,43.30
2019-04-16T22:42:34.307Z,43.52
2019-04-16T22:45:12.696Z,43.41
2019-04-16T22:47:46.839Z,43.59
2019-04-16T22:50:17.377Z,44.28
2019-04-16T22:52:46.986Z,44.44
2019-04-16T22:55:16.502Z,44.72
2019-04-16T22:57:45.932Z,44.89
2019-04-16T23:00:17.159Z,44.75
2019-04-16T23:02:48.258Z,45.00
2019-04-16T23:05:18.163Z,45.19
2019-04-16T23:07:47.583Z,45.26
2019-04-16T23:10:17.882Z,44.99
2019-04-16T23:12:48.143Z,45.42
2019-04-16T23:15:20.748Z,45.96
2019-04-16T23:17:50.176Z,45.73
2019-04-16T23:20:29.179Z,45.63
2019-04-16T23:22:50.734Z,45.41
2019-04-16T23:25:26.769Z,45.15
2019-04-16T23:27:54.918Z,45.64
2019-04-16T23:30:24.412Z,45.00
2019-04-16T23:32:59.057Z,45.35
2019-04-16T23:35:25.119Z,45.38
2019-04-16T23:37:59.304Z,45.21
2019-04-16T23:40:31.719Z,45.41
2019-04-16T23:43:22.197Z,45.80
2019-04-16T23:45:56.231Z,45.72
2019-04-16T23:48:44.777Z,45.22
2019-04-16T23:51:34.392Z,46.13
2019-04-16T23:54:20.571Z,46.02
2019-04-16T23:56:52.888Z,46.00
2019-04-16T23:59:27.153Z,45.64
